Terminal Aerodrome Forecast
Issued by NWS

Home | Current Version | Previous Version | Text Only | Print | Product List | Glossary On
Versions: 1 2 3 4 5 6 7 8 9 10 11 12 13 14 15 16 17 18 19 20 21 22 23 24 25 26
000
FTUS43 KDVN 150100 AAA
TAFCID
TAF AMD
KCID 150144Z 1502/1524 15008KT 3SM BR OVC004
     FM150400 15009KT 2SM BR OVC003
     FM151100 14011KT 1 1/2SM -RA BR OVC006
     FM151700 14010KT 3SM -RADZ BR OVC010=

USA.gov is the U.S. government's official web portal to all federal, state and local government web resources and services.